createdAt,value
2024-02-15T00:02:08.316Z,4.67
2024-02-15T00:04:34.912Z,5.01
2024-02-15T00:07:01.718Z,5.26
2024-02-15T00:09:28.430Z,5.24
2024-02-15T00:11:55.224Z,4.78
2024-02-15T00:14:22.018Z,5.40
2024-02-15T00:16:48.724Z,5.38
2024-02-15T00:19:15.457Z,5.49
2024-02-15T00:21:44.670Z,5.00
2024-02-15T00:24:11.436Z,4.95
2024-02-15T00:26:38.751Z,5.05
2024-02-15T00:29:05.359Z,5.42
2024-02-15T00:31:32.051Z,5.46
2024-02-15T00:33:58.888Z,5.52
2024-02-15T00:36:26.036Z,5.62
2024-02-15T00:38:52.662Z,5.47
2024-02-15T00:41:19.299Z,5.28
2024-02-15T00:43:46.232Z,5.33
2024-02-15T00:46:13.002Z,5.24
2024-02-15T00:48:40.119Z,5.19
2024-02-15T00:51:06.961Z,5.20
2024-02-15T00:53:33.934Z,5.21
2024-02-15T00:56:00.637Z,5.24
2024-02-15T00:58:30.185Z,5.17
2024-02-15T01:00:56.886Z,5.11
2024-02-15T01:03:23.617Z,5.42
2024-02-15T01:05:50.325Z,5.46
2024-02-15T01:08:16.958Z,5.36
2024-02-15T01:10:43.638Z,5.17
2024-02-15T01:13:10.313Z,5.35
2024-02-15T01:15:36.961Z,5.34
2024-02-15T01:18:03.888Z,5.37
2024-02-15T01:20:30.716Z,5.49
2024-02-15T01:22:57.417Z,5.29
2024-02-15T01:25:24.159Z,5.36
2024-02-15T01:27:51.012Z,5.61
2024-02-15T01:30:17.862Z,5.49
2024-02-15T01:32:44.632Z,5.21
2024-02-15T01:35:11.454Z,5.27
2024-02-15T01:37:38.168Z,5.46
2024-02-15T01:40:08.533Z,5.60
2024-02-15T01:42:35.184Z,5.57
2024-02-15T01:45:01.952Z,5.69
2024-02-15T01:47:29.117Z,5.85
2024-02-15T01:49:55.955Z,5.51
2024-02-15T01:52:22.774Z,5.74
2024-02-15T01:54:51.802Z,5.25
2024-02-15T01:57:19.341Z,4.81
2024-02-15T01:59:46.022Z,4.91
2024-02-15T02:02:15.914Z,5.07
2024-02-15T02:04:43.097Z,4.99
2024-02-15T02:07:09.811Z,5.02
2024-02-15T02:09:36.453Z,4.95
2024-02-15T02:12:03.131Z,4.83
2024-02-15T02:14:29.911Z,5.20
2024-02-15T02:16:56.521Z,5.01
2024-02-15T02:19:23.178Z,5.06
2024-02-15T02:21:49.771Z,5.83
2024-02-15T02:24:23.387Z,6.06
2024-02-15T02:26:53.042Z,5.29
2024-02-15T02:29:19.691Z,5.07
2024-02-15T02:31:46.291Z,5.39
2024-02-15T02:34:13.090Z,5.56
2024-02-15T02:36:39.771Z,5.36
2024-02-15T02:39:06.434Z,5.29
2024-02-15T02:41:33.329Z,5.01
2024-02-15T02:44:00.167Z,5.06
2024-02-15T02:46:26.887Z,5.39
2024-02-15T02:48:53.802Z,5.29
2024-02-15T02:51:20.961Z,5.37
2024-02-15T02:53:47.666Z,5.19
2024-02-15T02:56:14.339Z,5.00
2024-02-15T02:58:40.965Z,5.07
2024-02-15T03:01:07.599Z,5.20
2024-02-15T03:03:34.262Z,5.04
2024-02-15T03:06:00.984Z,5.05
2024-02-15T03:08:27.593Z,5.07
2024-02-15T03:10:54.329Z,5.03
2024-02-15T03:13:21.454Z,4.97
2024-02-15T03:15:48.100Z,5.01
2024-02-15T03:18:17.739Z,5.11
2024-02-15T03:20:44.611Z,5.29
2024-02-15T03:23:11.381Z,5.21
2024-02-15T03:25:38.279Z,5.17
2024-02-15T03:28:05.119Z,5.13
2024-02-15T03:30:33.089Z,5.03
2024-02-15T03:33:05.102Z,5.28
2024-02-15T03:35:31.987Z,5.35
2024-02-15T03:37:58.839Z,5.24
2024-02-15T03:40:25.732Z,5.28
2024-02-15T03:42:52.361Z,5.31
2024-02-15T03:45:19.486Z,5.35
2024-02-15T03:47:46.178Z,5.23
2024-02-15T03:50:12.915Z,5.04
2024-02-15T03:52:39.668Z,4.93
2024-02-15T03:55:07.021Z,4.90
2024-02-15T03:57:33.751Z,5.14
2024-02-15T04:00:00.977Z,5.38
2024-02-15T04:02:27.961Z,5.83
2024-02-15T04:04:55.003Z,5.83
2024-02-15T04:07:25.030Z,6.00
2024-02-15T04:09:51.751Z,5.70
2024-02-15T04:12:18.419Z,5.30
2024-02-15T04:14:45.829Z,5.25
2024-02-15T04:17:12.886Z,4.96
2024-02-15T04:19:39.679Z,4.73
2024-02-15T04:22:06.323Z,4.83
2024-02-15T04:24:32.881Z,4.87
2024-02-15T04:26:59.558Z,4.77
2024-02-15T04:29:26.244Z,5.47
2024-02-15T04:31:52.953Z,5.41
2024-02-15T04:34:20.115Z,5.11
2024-02-15T04:36:49.299Z,4.89
2024-02-15T04:39:15.970Z,4.80
2024-02-15T04:41:42.585Z,4.79
2024-02-15T04:44:09.320Z,4.94
2024-02-15T04:46:35.916Z,4.91
2024-02-15T04:49:02.580Z,4.79
2024-02-15T04:51:29.210Z,5.10
2024-02-15T04:53:56.003Z,5.33
2024-02-15T04:56:22.668Z,5.55
2024-02-15T04:58:49.371Z,5.29
2024-02-15T05:01:17.041Z,5.31
2024-02-15T05:03:44.629Z,5.17
2024-02-15T05:06:11.658Z,5.10
2024-02-15T05:08:39.346Z,5.18
2024-02-15T05:11:05.979Z,5.10
2024-02-15T05:13:32.698Z,5.06
2024-02-15T05:15:59.379Z,4.82
2024-02-15T05:18:26.131Z,4.52
2024-02-15T05:20:52.886Z,4.74
2024-02-15T05:23:19.576Z,5.01
2024-02-15T05:25:46.557Z,5.29
2024-02-15T05:28:13.443Z,5.44
2024-02-15T05:30:40.136Z,5.16
2024-02-15T05:33:06.928Z,5.28
2024-02-15T05:35:33.832Z,5.36
2024-02-15T05:38:00.599Z,5.31
2024-02-15T05:40:27.163Z,5.07
2024-02-15T05:43:00.936Z,5.01
2024-02-15T05:45:27.826Z,5.81
2024-02-15T05:47:55.030Z,5.70
2024-02-15T05:50:22.540Z,5.35
2024-02-15T05:52:49.438Z,5.39
2024-02-15T05:55:16.223Z,5.48
2024-02-15T05:57:43.040Z,5.52
2024-02-15T06:00:17.402Z,5.13
2024-02-15T06:02:48.878Z,4.86
2024-02-15T06:05:15.618Z,5.70
2024-02-15T06:07:42.564Z,5.48
2024-02-15T06:10:09.515Z,5.23
2024-02-15T06:12:36.190Z,5.15
2024-02-15T06:15:05.187Z,5.53
2024-02-15T06:17:32.043Z,5.53
2024-02-15T06:19:58.728Z,5.23
2024-02-15T06:22:25.404Z,5.12
2024-02-15T06:24:52.038Z,5.01
2024-02-15T06:27:18.853Z,5.04
2024-02-15T06:29:45.725Z,5.11
2024-02-15T06:32:12.477Z,5.06
2024-02-15T06:34:39.241Z,5.20
2024-02-15T06:37:05.872Z,5.30
2024-02-15T06:39:32.838Z,5.42
2024-02-15T06:42:02.136Z,5.16
2024-02-15T06:44:29.112Z,5.78
2024-02-15T06:46:55.893Z,6.17
2024-02-15T06:49:22.681Z,5.26
2024-02-15T06:51:50.440Z,4.77
2024-02-15T06:54:17.496Z,4.85
2024-02-15T06:56:44.260Z,5.19
2024-02-15T06:59:10.906Z,5.08
2024-02-15T07:01:37.517Z,5.34
2024-02-15T07:04:04.437Z,5.42
2024-02-15T07:06:31.393Z,5.61
2024-02-15T07:08:58.503Z,6.19
2024-02-15T07:11:25.184Z,5.92
2024-02-15T07:13:51.803Z,5.71
2024-02-15T07:16:18.601Z,5.63
2024-02-15T07:18:45.317Z,5.38
2024-02-15T07:21:12.093Z,4.79
2024-02-15T07:23:39.010Z,4.76
2024-02-15T07:26:05.721Z,5.45
2024-02-15T07:28:32.397Z,5.43
2024-02-15T07:30:59.088Z,5.23
2024-02-15T07:33:25.953Z,5.62
2024-02-15T07:35:55.487Z,5.96
2024-02-15T07:38:22.117Z,6.16
2024-02-15T07:40:48.733Z,5.83
2024-02-15T07:43:15.660Z,5.98
2024-02-15T07:45:43.382Z,6.07
2024-02-15T07:48:10.255Z,6.16
2024-02-15T07:50:36.948Z,5.13
2024-02-15T07:53:03.769Z,5.90
2024-02-15T07:55:30.426Z,5.19
2024-02-15T07:57:57.152Z,4.80
2024-02-15T08:00:26.791Z,5.23
2024-02-15T08:02:53.474Z,5.52
2024-02-15T08:05:20.258Z,5.69
2024-02-15T08:07:46.999Z,6.33
2024-02-15T08:10:14.162Z,5.80
2024-02-15T08:12:47.382Z,6.23
2024-02-15T08:15:14.344Z,6.53
2024-02-15T08:17:44.759Z,6.32
2024-02-15T08:20:12.144Z,6.29
2024-02-15T08:22:39.334Z,6.18
2024-02-15T08:25:10.898Z,6.11
2024-02-15T08:27:48.953Z,6.13
2024-02-15T08:30:16.885Z,6.55
2024-02-15T08:32:44.864Z,6.82
2024-02-15T08:35:13.299Z,6.90
2024-02-15T08:37:43.141Z,6.95
2024-02-15T08:40:10.704Z,6.56
2024-02-15T08:42:46.400Z,6.47
2024-02-15T08:45:13.293Z,5.99
2024-02-15T08:47:41.562Z,6.12
2024-02-15T08:50:09.880Z,6.19
2024-02-15T08:52:37.275Z,6.07
2024-02-15T08:55:03.967Z,6.20
2024-02-15T08:57:30.612Z,5.91
2024-02-15T08:59:57.192Z,6.66
2024-02-15T09:02:23.923Z,6.89
2024-02-15T09:04:50.631Z,6.94
2024-02-15T09:07:17.451Z,6.70
2024-02-15T09:09:44.400Z,6.83
2024-02-15T09:12:11.035Z,6.94
2024-02-15T09:14:37.712Z,7.16
2024-02-15T09:17:06.125Z,6.71
2024-02-15T09:19:33.664Z,6.71
2024-02-15T09:22:00.292Z,6.80
2024-02-15T09:24:26.976Z,6.74
2024-02-15T09:26:53.689Z,7.06
2024-02-15T09:29:20.415Z,7.22
2024-02-15T09:31:50.093Z,6.98
2024-02-15T09:34:19.363Z,6.80
2024-02-15T09:36:46.113Z,6.48
2024-02-15T09:39:12.837Z,6.85
2024-02-15T09:41:39.551Z,7.41
2024-02-15T09:44:06.170Z,7.04
2024-02-15T09:46:37.082Z,7.23
2024-02-15T09:49:04.720Z,7.23
2024-02-15T09:51:34.528Z,7.09
2024-02-15T09:54:02.113Z,7.19
2024-02-15T09:56:29.289Z,7.40
2024-02-15T09:58:56.066Z,6.69
2024-02-15T10:01:24.291Z,6.61
2024-02-15T10:03:51.087Z,6.99
2024-02-15T10:06:18.293Z,7.59
2024-02-15T10:08:45.593Z,7.32
2024-02-15T10:11:12.577Z,7.38
2024-02-15T10:13:39.212Z,7.03
2024-02-15T10:16:35.460Z,6.97
2024-02-15T10:19:10.497Z,7.23
2024-02-15T10:21:37.253Z,7.28
2024-02-15T10:24:05.891Z,7.26
2024-02-15T10:26:33.093Z,7.43
2024-02-15T10:29:11.156Z,7.53
2024-02-15T10:31:39.507Z,7.00
2024-02-15T10:34:07.896Z,7.45
2024-02-15T10:36:37.369Z,7.59
2024-02-15T10:39:14.808Z,7.32
2024-02-15T10:41:42.118Z,7.81
2024-02-15T10:44:09.697Z,7.99
2024-02-15T10:46:36.375Z,8.02
2024-02-15T10:49:03.153Z,8.37
2024-02-15T10:51:30.745Z,8.71
2024-02-15T10:54:04.026Z,7.95
2024-02-15T10:56:38.294Z,7.93
2024-02-15T10:59:25.294Z,7.84
2024-02-15T11:01:55.653Z,7.74
2024-02-15T11:04:23.496Z,7.79
2024-02-15T11:06:51.178Z,8.14
2024-02-15T11:09:18.721Z,8.37
2024-02-15T11:11:46.213Z,8.11
2024-02-15T11:14:27.479Z,8.48
2024-02-15T11:16:54.254Z,8.64
2024-02-15T11:19:35.920Z,8.70
2024-02-15T11:22:09.674Z,7.96
2024-02-15T11:24:36.466Z,7.57
2024-02-15T11:27:04.792Z,8.16
2024-02-15T11:29:59.708Z,8.49
2024-02-15T11:32:39.263Z,8.83
2024-02-15T11:35:10.797Z,8.19
2024-02-15T11:37:49.571Z,8.56
2024-02-15T11:40:21.192Z,8.95
2024-02-15T11:42:47.816Z,8.99
2024-02-15T11:45:16.613Z,9.21
2024-02-15T11:47:43.410Z,8.79
2024-02-15T11:50:11.403Z,8.31
2024-02-15T11:52:38.026Z,8.66
2024-02-15T11:55:08.336Z,9.12
2024-02-15T11:57:34.942Z,9.00
2024-02-15T12:00:01.757Z,9.02
2024-02-15T12:02:28.569Z,9.51
2024-02-15T12:04:55.322Z,9.27
2024-02-15T12:07:22.861Z,9.13
2024-02-15T12:09:49.561Z,9.12
2024-02-15T12:12:16.326Z,9.59
2024-02-15T12:14:43.078Z,9.05
2024-02-15T12:17:11.496Z,8.64
2024-02-15T12:19:38.139Z,8.74
2024-02-15T12:22:06.290Z,8.94
2024-02-15T12:24:33.073Z,8.33
2024-02-15T12:27:03.615Z,8.85
2024-02-15T12:29:30.554Z,8.87
2024-02-15T12:31:57.469Z,8.98
2024-02-15T12:34:24.107Z,9.20
2024-02-15T12:36:50.788Z,9.56
2024-02-15T12:39:25.656Z,9.13
2024-02-15T12:41:52.441Z,9.50
2024-02-15T12:44:19.325Z,9.38
2024-02-15T12:46:45.969Z,9.28
2024-02-15T12:49:30.383Z,9.19
2024-02-15T12:52:36.052Z,8.77
2024-02-15T12:55:12.305Z,8.98
2024-02-15T12:57:39.692Z,8.85
2024-02-15T13:00:07.507Z,8.96
2024-02-15T13:02:34.173Z,9.01
2024-02-15T13:05:01.056Z,9.13
2024-02-15T13:07:27.891Z,9.32
2024-02-15T13:09:54.551Z,9.43
2024-02-15T13:12:21.250Z,9.45
2024-02-15T13:14:47.942Z,9.66
2024-02-15T13:17:14.580Z,9.27
2024-02-15T13:19:46.596Z,9.25
2024-02-15T13:22:13.265Z,9.61
2024-02-15T13:24:39.893Z,9.63
2024-02-15T13:27:06.601Z,9.62
2024-02-15T13:29:33.187Z,9.74
2024-02-15T13:31:59.840Z,9.26
2024-02-15T13:34:26.545Z,9.06
2024-02-15T13:36:53.245Z,9.05
2024-02-15T13:39:19.981Z,9.29
2024-02-15T13:41:46.684Z,9.70
2024-02-15T13:44:13.363Z,9.79
2024-02-15T13:46:40.020Z,9.25
2024-02-15T13:49:08.707Z,9.78
2024-02-15T13:51:38.605Z,9.22
2024-02-15T13:54:05.247Z,9.39
2024-02-15T13:56:31.962Z,9.51
2024-02-15T13:59:02.628Z,9.45
2024-02-15T14:01:30.667Z,9.40
2024-02-15T14:03:57.373Z,9.63
2024-02-15T14:06:24.136Z,9.20
2024-02-15T14:08:50.816Z,9.27
2024-02-15T14:11:17.714Z,9.48
2024-02-15T14:13:44.559Z,9.34
2024-02-15T14:16:11.243Z,9.41
2024-02-15T14:18:37.973Z,9.20
2024-02-15T14:21:04.823Z,9.07
2024-02-15T14:23:31.476Z,9.37
2024-02-15T14:25:58.092Z,9.26
2024-02-15T14:28:24.738Z,9.24
2024-02-15T14:30:51.492Z,9.16
2024-02-15T14:33:22.170Z,8.98
2024-02-15T14:35:51.158Z,8.93
2024-02-15T14:38:17.812Z,8.84
2024-02-15T14:40:46.334Z,8.76
2024-02-15T14:45:44.966Z,9.43
2024-02-15T14:48:12.075Z,9.74
2024-02-15T14:50:38.936Z,9.39
2024-02-15T14:53:05.810Z,9.30
2024-02-15T14:55:32.623Z,9.68
2024-02-15T14:58:04.183Z,9.59
2024-02-15T15:00:37.740Z,9.83
2024-02-15T15:03:05.364Z,9.26
2024-02-15T15:05:32.368Z,9.56
2024-02-15T15:07:59.122Z,9.24
2024-02-15T15:10:25.788Z,9.33
2024-02-15T15:12:52.545Z,9.33
2024-02-15T15:15:19.303Z,9.31
2024-02-15T15:17:46.681Z,9.28
2024-02-15T15:20:13.867Z,9.34
2024-02-15T15:22:40.533Z,9.03
2024-02-15T15:25:07.318Z,8.87
2024-02-15T15:27:33.945Z,8.84
2024-02-15T15:30:00.760Z,8.95
2024-02-15T15:32:27.599Z,9.27
2024-02-15T15:34:54.392Z,8.99
2024-02-15T15:37:22.200Z,9.04
2024-02-15T15:39:48.941Z,9.14
2024-02-15T15:42:16.602Z,8.99
2024-02-15T15:44:43.296Z,9.15
2024-02-15T15:47:09.904Z,9.11
2024-02-15T15:49:36.622Z,8.93
2024-02-15T15:52:03.451Z,9.44
2024-02-15T15:54:30.214Z,9.38
2024-02-15T15:56:56.867Z,8.99
2024-02-15T15:59:23.609Z,8.91
2024-02-15T16:01:52.102Z,8.92
2024-02-15T16:04:18.816Z,9.04
2024-02-15T16:06:45.564Z,8.82
2024-02-15T16:09:12.344Z,8.73
2024-02-15T16:11:39.207Z,8.71
2024-02-15T16:14:10.944Z,8.70
2024-02-15T16:16:37.546Z,8.58
2024-02-15T16:19:04.372Z,8.45
2024-02-15T16:21:31.172Z,8.45
2024-02-15T16:23:57.958Z,8.47
2024-02-15T16:26:24.691Z,8.57
2024-02-15T16:28:51.664Z,8.69
2024-02-15T16:31:18.293Z,8.74
2024-02-15T16:33:45.121Z,8.87
2024-02-15T16:36:11.918Z,8.81
2024-02-15T16:38:38.538Z,8.72
2024-02-15T16:41:05.133Z,8.64
2024-02-15T16:43:31.967Z,8.77
2024-02-15T16:45:59.152Z,8.89
2024-02-15T16:48:25.977Z,8.67
2024-02-15T16:50:53.262Z,8.51
2024-02-15T16:53:19.923Z,8.55
2024-02-15T16:55:46.599Z,8.47
2024-02-15T16:58:13.233Z,8.42
2024-02-15T17:00:40.334Z,8.33
2024-02-15T17:03:07.484Z,8.51
2024-02-15T17:05:34.385Z,8.81
2024-02-15T17:08:00.980Z,9.00
2024-02-15T17:10:27.666Z,8.97
2024-02-15T17:12:54.805Z,8.37
2024-02-15T17:15:22.207Z,8.36
2024-02-15T17:17:49.145Z,8.40
2024-02-15T17:20:16.281Z,8.38
2024-02-15T17:22:43.462Z,8.31
2024-02-15T17:25:10.803Z,8.24
2024-02-15T17:27:37.562Z,8.34
2024-02-15T17:30:04.930Z,8.84
2024-02-15T17:32:31.717Z,8.85
2024-02-15T17:34:58.400Z,8.35
2024-02-15T17:37:25.037Z,8.28
2024-02-15T17:39:51.693Z,8.23
2024-02-15T17:42:18.349Z,8.21
2024-02-15T17:44:45.044Z,7.98
2024-02-15T17:47:11.640Z,8.16
2024-02-15T17:49:38.281Z,8.08
2024-02-15T17:52:05.190Z,8.19
2024-02-15T17:54:31.767Z,8.04
2024-02-15T17:56:58.476Z,8.07
2024-02-15T17:59:25.147Z,8.14
2024-02-15T18:01:51.796Z,7.95
2024-02-15T18:04:18.459Z,7.87
2024-02-15T18:06:45.201Z,7.92
2024-02-15T18:09:12.052Z,7.94
2024-02-15T18:11:38.854Z,8.13
2024-02-15T18:14:05.555Z,8.06
2024-02-15T18:16:32.264Z,7.85
2024-02-15T18:18:59.062Z,7.95
2024-02-15T18:21:25.927Z,8.07
2024-02-15T18:23:52.612Z,7.98
2024-02-15T18:26:19.402Z,7.93
2024-02-15T18:28:46.018Z,8.01
2024-02-15T18:31:13.565Z,8.10
2024-02-15T18:33:40.931Z,8.21
2024-02-15T18:36:08.659Z,8.11
2024-02-15T18:38:35.456Z,8.08
2024-02-15T18:41:02.134Z,7.99
2024-02-15T18:43:28.928Z,7.99
2024-02-15T18:45:55.577Z,8.17
2024-02-15T18:48:22.517Z,7.99
2024-02-15T18:50:49.447Z,8.07
2024-02-15T18:53:16.224Z,8.12
2024-02-15T18:55:45.068Z,8.08
2024-02-15T18:58:11.702Z,7.98
2024-02-15T19:00:43.168Z,8.26
2024-02-15T19:03:16.769Z,8.15
2024-02-15T19:05:43.560Z,8.36
2024-02-15T19:08:10.390Z,8.04
2024-02-15T19:10:37.003Z,7.99
2024-02-15T19:13:03.941Z,8.04
2024-02-15T19:15:30.618Z,7.57
2024-02-15T19:17:57.476Z,7.49
2024-02-15T19:20:24.174Z,7.70
2024-02-15T19:22:50.818Z,7.78
2024-02-15T19:25:18.027Z,7.81
2024-02-15T19:27:45.577Z,7.57
2024-02-15T19:30:13.221Z,7.54
2024-02-15T19:32:41.191Z,7.61
2024-02-15T19:35:08.342Z,7.62
2024-02-15T19:37:35.178Z,7.71
2024-02-15T19:40:02.367Z,7.79
2024-02-15T19:42:29.137Z,7.71
2024-02-15T19:44:55.896Z,7.62
2024-02-15T19:47:22.510Z,7.71
2024-02-15T19:49:49.278Z,7.53
2024-02-15T19:52:16.034Z,7.73
2024-02-15T19:54:42.659Z,7.50
2024-02-15T19:57:09.351Z,7.39
2024-02-15T19:59:36.011Z,7.34
2024-02-15T20:02:03.701Z,7.32
2024-02-15T20:04:30.419Z,7.43
2024-02-15T20:06:57.219Z,7.35
2024-02-15T20:09:28.459Z,7.35
2024-02-15T20:11:59.171Z,7.29
2024-02-15T20:14:25.804Z,7.34
2024-02-15T20:16:52.562Z,7.13
2024-02-15T20:19:19.167Z,7.12
2024-02-15T20:21:45.838Z,7.34
2024-02-15T20:24:12.515Z,7.25
2024-02-15T20:26:39.341Z,7.38
2024-02-15T20:29:06.004Z,7.31
2024-02-15T20:31:32.679Z,7.28
2024-02-15T20:33:59.876Z,7.60
2024-02-15T20:36:26.674Z,7.91
2024-02-15T20:38:53.375Z,7.80
2024-02-15T20:41:19.989Z,7.80
2024-02-15T20:43:46.702Z,7.71
2024-02-15T20:46:13.396Z,7.60
2024-02-15T20:48:40.083Z,7.44
2024-02-15T20:51:06.848Z,7.12
2024-02-15T20:53:33.503Z,7.21
2024-02-15T20:56:00.392Z,7.24
2024-02-15T20:58:27.133Z,7.41
2024-02-15T21:00:53.829Z,7.33
2024-02-15T21:03:20.763Z,7.45
2024-02-15T21:05:47.526Z,7.56
2024-02-15T21:08:14.273Z,7.50
2024-02-15T21:10:40.938Z,7.47
2024-02-15T21:13:07.529Z,7.64
2024-02-15T21:15:34.286Z,7.31
2024-02-15T21:18:01.110Z,7.44
2024-02-15T21:20:27.903Z,7.41
2024-02-15T21:22:54.659Z,7.29
2024-02-15T21:25:21.936Z,7.33
2024-02-15T21:27:48.615Z,7.20
2024-02-15T21:30:15.439Z,7.29
2024-02-15T21:32:42.104Z,7.18
2024-02-15T21:35:08.923Z,7.06
2024-02-15T21:37:35.544Z,7.08
2024-02-15T21:40:02.964Z,7.44
2024-02-15T21:42:29.647Z,7.26
2024-02-15T21:44:56.364Z,7.28
2024-02-15T21:47:23.056Z,7.30
2024-02-15T21:49:49.728Z,7.19
2024-02-15T21:52:16.321Z,7.23
2024-02-15T21:54:43.020Z,7.32
2024-02-15T21:57:09.757Z,7.34
2024-02-15T21:59:37.327Z,7.37
2024-02-15T22:02:04.466Z,7.28
2024-02-15T22:04:31.134Z,7.30
2024-02-15T22:06:57.880Z,7.12
2024-02-15T22:09:24.637Z,7.01
2024-02-15T22:11:51.306Z,6.81
2024-02-15T22:14:17.927Z,7.04
2024-02-15T22:16:44.645Z,7.03
2024-02-15T22:19:12.312Z,6.92
2024-02-15T22:21:39.014Z,6.88
2024-02-15T22:24:05.946Z,6.84
2024-02-15T22:26:32.506Z,6.96
2024-02-15T22:28:59.124Z,7.06
2024-02-15T22:31:25.756Z,7.03
2024-02-15T22:33:52.575Z,7.08
2024-02-15T22:36:22.775Z,6.89
2024-02-15T22:38:49.469Z,6.99
2024-02-15T22:41:16.054Z,7.05
2024-02-15T22:43:42.731Z,7.05
2024-02-15T22:46:09.373Z,6.78
2024-02-15T22:48:36.053Z,6.85
2024-02-15T22:51:02.726Z,6.76
2024-02-15T22:53:29.567Z,6.78
2024-02-15T22:55:56.197Z,6.96
2024-02-15T22:58:25.292Z,6.65
2024-02-15T23:00:52.188Z,7.10
2024-02-15T23:03:18.875Z,6.92
2024-02-15T23:05:46.274Z,6.77
2024-02-15T23:08:12.992Z,6.43
2024-02-15T23:10:39.729Z,6.79
2024-02-15T23:13:06.314Z,6.94
2024-02-15T23:15:33.013Z,6.86
2024-02-15T23:17:59.830Z,6.71
2024-02-15T23:20:26.483Z,6.87
2024-02-15T23:22:53.096Z,7.14
2024-02-15T23:25:19.673Z,6.91
2024-02-15T23:27:46.291Z,6.71
2024-02-15T23:30:13.044Z,7.10
2024-02-15T23:32:39.900Z,7.24
2024-02-15T23:35:07.148Z,6.88
2024-02-15T23:37:33.846Z,7.04
2024-02-15T23:40:00.527Z,7.02
2024-02-15T23:42:27.320Z,7.07
2024-02-15T23:44:54.097Z,7.06
2024-02-15T23:47:20.736Z,6.93
2024-02-15T23:49:47.429Z,7.13
2024-02-15T23:52:14.057Z,7.32
2024-02-15T23:54:40.747Z,7.30
2024-02-15T23:57:08.047Z,7.31
2024-02-15T23:59:35.328Z,7.17
